Time;durP1;ratioP1;P1;durP2;ratioP2;P2;SDS_P1;SDS_P2;PMS_P1;PMS_P2;Temp;Humidity;BMP_temperature;BMP_pressure;BME280_temperature;BME280_humidity;BME280_pressure;Samples;Min_cycle;Max_cycle;Signal;HPM_P1;HPM_P2
2022/03/24 00:04:47;;;;;;;1.52;1.20;;;18.10;28.90;20.70;94825.00;;;;10293190;28;45409;-63
2022/03/24 00:09:47;;;;;;;2.05;1.33;;;18.10;28.90;20.70;94829.00;;;;10292644;28;45230;-63
2022/03/24 00:14:48;;;;;;;1.30;0.95;;;18.10;28.90;20.60;94828.00;;;;10293170;28;45384;-62
2022/03/24 00:19:49;;;;;;;2.00;1.17;;;18.10;28.90;20.60;94825.00;;;;10277609;28;46476;-62
2022/03/24 00:24:50;;;;;;;1.60;1.15;;;18.10;29.00;20.60;94829.00;;;;10292347;28;45209;-62
2022/03/24 00:29:50;;;;;;;1.58;1.20;;;18.10;28.90;20.60;94822.00;;;;10276901;28;45449;-62
2022/03/24 00:34:51;;;;;;;1.50;1.10;;;18.00;28.90;20.60;94811.00;;;;10292500;28;47012;-62
2022/03/24 00:39:52;;;;;;;1.70;1.23;;;18.00;28.90;20.60;94817.00;;;;10291686;28;46848;-62
2022/03/24 00:44:52;;;;;;;2.08;1.23;;;18.00;28.90;20.60;94820.00;;;;10277324;28;45362;-62
2022/03/24 00:49:53;;;;;;;1.75;1.33;;;18.00;29.00;20.50;94810.00;;;;10276764;28;46653;-63
2022/03/24 00:54:54;;;;;;;2.17;1.13;;;18.00;29.00;20.50;94800.00;;;;10277606;28;45468;-63
2022/03/24 00:59:54;;;;;;;2.55;1.20;;;18.00;28.90;20.50;94798.00;;;;10274688;28;47011;-63
2022/03/24 01:04:55;;;;;;;1.58;1.10;;;18.00;29.00;20.50;94802.00;;;;10291584;28;46931;-63
2022/03/24 01:09:56;;;;;;;1.40;1.02;;;17.90;28.90;20.50;94801.00;;;;10291067;28;45249;-62
2022/03/24 01:14:58;;;;;;;1.70;1.20;;;17.90;28.90;20.50;94807.00;;;;10291064;28;47218;-63
2022/03/24 01:19:58;;;;;;;1.20;1.10;;;17.90;29.00;20.50;94802.00;;;;10274665;28;47302;-63
2022/03/24 01:24:59;;;;;;;1.42;1.10;;;17.90;28.90;20.40;94800.00;;;;10291213;28;46706;-62
2022/03/24 01:30:01;;;;;;;1.52;1.20;;;17.90;28.90;20.40;94796.00;;;;10273894;28;47200;-63
2022/03/24 01:35:06;;;;;;;1.95;1.25;;;17.90;28.90;20.40;94798.00;;;;10290840;28;47040;-62
2022/03/24 01:40:11;;;;;;;1.70;1.08;;;17.80;28.90;20.40;94794.00;;;;10290284;28;45467;-62
2022/03/24 01:45:12;;;;;;;1.40;1.10;;;17.80;28.90;20.30;94784.00;;;;10290068;28;45211;-62
2022/03/24 01:50:12;;;;;;;1.35;1.02;;;17.80;28.90;20.30;94782.00;;;;10289603;28;46888;-63
2022/03/24 01:55:13;;;;;;;2.03;1.20;;;17.80;28.90;20.30;94780.00;;;;10289848;28;46012;-62
2022/03/24 02:00:14;;;;;;;1.30;1.17;;;17.80;28.90;20.40;94785.00;;;;10285869;28;45401;-64
2022/03/24 02:05:15;;;;;;;1.55;1.20;;;17.80;28.90;20.40;94783.00;;;;10269436;28;46532;-63
2022/03/24 02:10:16;;;;;;;1.83;1.10;;;17.80;28.90;20.40;94772.00;;;;10274326;28;45675;-62
2022/03/24 02:15:18;;;;;;;1.90;1.30;;;17.90;28.80;20.40;94783.00;;;;10288610;28;46357;-62
2022/03/24 02:20:21;;;;;;;1.70;1.10;;;17.90;28.80;20.40;94773.00;;;;10289214;28;45263;-62
2022/03/24 02:25:23;;;;;;;1.73;1.20;;;17.90;28.70;20.40;94776.00;;;;10273466;28;45234;-63
2022/03/24 02:30:26;;;;;;;2.42;1.20;;;17.90;28.70;20.40;94768.00;;;;10375233;22;46306;-62
2022/03/24 02:35:27;;;;;;;1.27;1.05;;;17.80;28.50;20.40;94779.00;;;;10353640;28;46131;-63
2022/03/24 02:40:27;;;;;;;1.58;1.13;;;17.80;28.50;20.40;94777.00;;;;10354949;28;45352;-62
2022/03/24 02:45:28;;;;;;;1.45;1.10;;;17.90;28.50;20.40;94763.00;;;;10370085;28;45143;-62
2022/03/24 02:50:30;;;;;;;1.77;1.30;;;17.90;28.40;20.50;94768.00;;;;10354464;28;45191;-62
2022/03/24 02:55:31;;;;;;;1.35;1.15;;;17.90;28.50;20.40;94769.00;;;;10369518;28;46272;-62
2022/03/24 03:00:31;;;;;;;1.52;1.20;;;17.90;28.40;20.50;94771.00;;;;10368949;28;45312;-62
2022/03/24 03:05:32;;;;;;;1.77;1.13;;;17.90;28.40;20.50;94773.00;;;;10353988;28;45252;-62
2022/03/24 03:10:34;;;;;;;1.80;1.10;;;17.90;28.30;20.40;94779.00;;;;10352618;28;46995;-62
2022/03/24 03:15:35;;;;;;;1.85;1.30;;;17.90;28.30;20.50;94770.00;;;;10353812;28;45970;-62
2022/03/24 03:20:36;;;;;;;1.52;1.30;;;17.90;28.30;20.50;94772.00;;;;10369566;28;45422;-62
2022/03/24 03:25:37;;;;;;;2.42;1.30;;;17.90;28.20;20.50;94766.00;;;;10373062;28;45662;-63
2022/03/24 03:30:37;;;;;;;1.70;1.23;;;17.90;28.10;20.50;94776.00;;;;10376023;28;45354;-62
2022/03/24 03:35:38;;;;;;;1.55;1.20;;;17.90;28.70;20.50;94767.00;;;;10358963;28;47235;-62
2022/03/24 03:40:38;;;;;;;2.03;1.20;;;17.90;28.10;20.50;94786.00;;;;10376022;28;45389;-62
2022/03/24 03:45:40;;;;;;;1.63;1.20;;;17.90;28.00;20.50;94775.00;;;;10358376;28;47243;-62
2022/03/24 03:50:43;;;;;;;1.45;1.20;;;17.90;28.10;20.50;94768.00;;;;10358734;28;47910;-62
2022/03/24 03:55:44;;;;;;;2.03;1.42;;;17.90;28.10;20.40;94778.00;;;;10358904;28;46822;-62
2022/03/24 04:00:55;;;;;;;2.95;1.45;;;17.90;28.00;20.50;94772.00;;;;10358562;28;46916;-62
2022/03/24 04:06:00;;;;;;;2.38;1.38;;;17.90;28.00;20.40;94766.00;;;;10359412;28;46412;-62
2022/03/24 04:11:01;;;;;;;2.40;1.23;;;17.90;28.00;20.40;94766.00;;;;10359278;28;45529;-63
2022/03/24 04:16:03;;;;;;;2.65;1.40;;;17.90;28.10;20.40;94772.00;;;;10356917;28;48354;-62
2022/03/24 04:21:04;;;;;;;1.90;1.30;;;17.90;28.00;20.40;94764.00;;;;10358071;28;47309;-62
2022/03/24 04:26:06;;;;;;;1.30;1.15;;;17.90;28.00;20.40;94752.00;;;;10358784;28;45477;-62
2022/03/24 04:31:07;;;;;;;1.92;1.48;;;17.90;28.00;20.40;94768.00;;;;10374176;28;45337;-62
2022/03/24 04:36:08;;;;;;;1.90;1.35;;;17.80;27.90;20.40;94768.00;;;;10356825;28;46888;-63
2022/03/24 04:41:09;;;;;;;2.58;1.35;;;17.90;28.00;20.40;94759.00;;;;10358327;28;45317;-62
2022/03/24 04:46:09;;;;;;;1.40;1.20;;;17.80;27.90;20.40;94780.00;;;;10372782;28;45138;-63
2022/03/24 04:51:10;;;;;;;2.10;1.40;;;17.80;27.90;20.40;94761.00;;;;10373455;28;45903;-62
2022/03/24 04:56:11;;;;;;;2.33;1.50;;;17.80;27.80;20.40;94760.00;;;;10357283;28;45450;-63
2022/03/24 05:01:14;;;;;;;1.52;1.35;;;17.80;27.80;20.40;94775.00;;;;10372957;28;45289;-63
2022/03/24 05:06:15;;;;;;;2.33;1.50;;;17.80;27.90;20.40;94781.00;;;;10356860;28;46233;-62
2022/03/24 05:11:16;;;;;;;1.83;1.27;;;17.80;27.90;20.50;94772.00;;;;10357451;28;45598;-63
2022/03/24 05:16:17;;;;;;;2.17;1.73;;;17.90;28.10;20.50;94780.00;;;;10357158;28;46343;-62
2022/03/24 05:21:18;;;;;;;1.63;1.30;;;18.00;28.70;20.50;94761.00;;;;10372726;28;45266;-62
2022/03/24 05:26:20;;;;;;;1.67;1.25;;;18.00;28.00;20.60;94788.00;;;;10354851;28;48332;-62
2022/03/24 05:31:22;;;;;;;1.75;1.42;;;18.00;28.00;20.60;94784.00;;;;10355310;28;47092;-63
2022/03/24 05:36:22;;;;;;;3.40;1.60;;;18.10;28.50;20.60;94782.00;;;;10354941;28;47374;-63
2022/03/24 05:41:24;;;;;;;2.25;1.50;;;18.10;27.90;20.60;94789.00;;;;10372037;28;45179;-63
2022/03/24 05:46:24;;;;;;;1.80;1.40;;;18.10;27.80;20.60;94794.00;;;;10370435;28;46678;-62
2022/03/24 05:51:26;;;;;;;2.20;1.50;;;18.10;27.80;20.60;94790.00;;;;10355254;28;46938;-62
2022/03/24 05:56:28;;;;;;;2.45;1.40;;;18.10;27.80;20.70;94808.00;;;;10371093;28;46510;-62
2022/03/24 06:01:29;;;;;;;2.42;1.45;;;18.20;27.80;20.70;94790.00;;;;10355000;28;47090;-62
2022/03/24 06:06:37;;;;;;;2.13;1.48;;;18.20;27.80;20.70;94801.00;;;;10354280;28;47075;-62
2022/03/24 06:11:39;;;;;;;1.98;1.45;;;18.20;27.80;20.70;94803.00;;;;10370536;28;46098;-63
2022/03/24 06:16:43;;;;;;;1.90;1.38;;;18.20;27.80;20.70;94809.00;;;;10354073;28;46580;-62
2022/03/24 06:21:44;;;;;;;2.35;1.63;;;18.20;27.80;20.70;94815.00;;;;10354357;28;48082;-63
2022/03/24 06:26:45;;;;;;;2.50;1.50;;;18.20;27.80;20.80;94817.00;;;;10353054;28;47185;-62
2022/03/24 06:31:45;;;;;;;2.85;1.17;;;18.20;27.80;20.70;94808.00;;;;10355067;28;45371;-63
2022/03/24 06:36:46;;;;;;;2.60;1.67;;;18.20;27.80;20.80;94818.00;;;;10370218;28;45587;-63
2022/03/24 06:41:48;;;;;;;1.95;1.40;;;18.20;27.80;20.80;94810.00;;;;10353346;28;48002;-62
2022/03/24 06:46:49;;;;;;;2.00;1.38;;;18.30;27.90;20.80;94807.00;;;;10369652;28;45206;-62
2022/03/24 06:51:49;;;;;;;4.80;1.60;;;18.30;27.90;20.80;94818.00;;;;10369983;28;46012;-62
2022/03/24 06:56:50;;;;;;;1.50;1.20;;;18.30;27.90;20.80;94816.00;;;;10354032;28;45097;-63
2022/03/24 07:01:51;;;;;;;2.28;1.55;;;18.30;27.90;20.80;94819.00;;;;10353082;28;47110;-62
2022/03/24 07:06:51;;;;;;;2.28;1.48;;;18.30;28.00;20.80;94820.00;;;;10353755;28;45388;-62
2022/03/24 07:11:52;;;;;;;2.05;1.40;;;18.30;27.90;20.80;94829.00;;;;10352739;28;48298;-63
2022/03/24 07:16:53;;;;;;;3.50;1.70;;;18.30;28.00;20.80;94824.00;;;;10368825;28;46143;-62
2022/03/24 07:21:53;;;;;;;4.07;1.88;;;18.30;27.90;20.90;94823.00;;;;10353907;28;46284;-62
2022/03/24 07:26:54;;;;;;;3.40;1.60;;;18.30;27.90;20.90;94822.00;;;;10368078;28;45373;-62
2022/03/24 07:31:55;;;;;;;5.72;1.80;;;18.30;27.90;20.90;94819.00;;;;10353700;28;46617;-62
2022/03/24 07:36:56;;;;;;;5.10;1.60;;;18.30;27.80;20.90;94825.00;;;;10351654;28;47112;-62
2022/03/24 07:41:57;;;;;;;4.10;1.88;;;18.40;27.90;20.90;94826.00;;;;10368785;28;45181;-62
2022/03/24 07:46:57;;;;;;;3.92;1.73;;;18.40;27.80;20.90;94830.00;;;;10367958;28;45331;-62
2022/03/24 07:51:58;;;;;;;2.35;1.73;;;18.40;27.80;20.90;94828.00;;;;10351405;28;47310;-62
2022/03/24 07:56:59;;;;;;;4.32;2.60;;;18.30;27.80;20.80;94830.00;;;;10351250;28;47087;-62
2022/03/24 08:01:59;;;;;;;3.22;2.30;;;18.30;26.80;20.80;94835.00;;;;10368356;28;45587;-62
2022/03/24 08:07:00;;;;;;;2.80;2.00;;;18.20;27.30;20.80;94831.00;;;;10368098;28;45314;-62
2022/03/24 08:12:01;;;;;;;2.55;1.90;;;18.30;27.20;20.80;94828.00;;;;10355971;28;48252;-63
2022/03/24 08:17:02;;;;;;;4.50;2.00;;;18.30;27.20;20.90;94831.00;;;;10359074;28;45360;-63
2022/03/24 08:22:03;;;;;;;2.75;1.73;;;18.30;27.10;20.90;94841.00;;;;10374598;28;45308;-62
2022/03/24 08:27:04;;;;;;;3.47;1.83;;;18.30;27.00;20.80;94838.00;;;;10373791;28;45948;-63
2022/03/24 08:32:05;;;;;;;2.55;1.65;;;18.30;27.40;20.90;94846.00;;;;10357661;28;46927;-63
2022/03/24 08:37:06;;;;;;;2.85;1.90;;;18.30;27.30;20.90;94851.00;;;;10358220;28;45398;-64
2022/03/24 08:42:07;;;;;;;2.75;1.40;;;18.30;27.40;20.90;94853.00;;;;10358412;28;45282;-62
2022/03/24 08:47:08;;;;;;;2.55;1.60;;;18.30;27.50;20.90;94849.00;;;;10357844;28;46403;-63
2022/03/24 08:52:10;;;;;;;2.65;1.58;;;18.30;27.70;20.90;94844.00;;;;10373343;28;45978;-63
2022/03/24 08:57:11;;;;;;;2.65;1.60;;;18.30;27.80;20.90;94845.00;;;;10355828;28;46997;-63
2022/03/24 09:02:12;;;;;;;2.92;2.13;;;18.40;28.00;20.90;94854.00;;;;10356077;28;46193;-63
2022/03/24 09:07:13;;;;;;;3.95;2.35;;;18.40;27.80;20.90;94850.00;;;;10373056;28;47133;-63
2022/03/24 09:12:14;;;;;;;3.05;1.80;;;18.30;28.10;20.90;94831.00;;;;10396462;28;45237;-63
2022/03/24 09:17:15;;;;;;;2.75;1.90;;;18.30;28.10;20.90;94844.00;;;;10340622;28;46977;-63
2022/03/24 09:22:16;;;;;;;6.38;1.80;;;18.30;28.20;20.90;94837.00;;;;10354279;28;45353;-64
2022/03/24 09:27:17;;;;;;;2.42;1.63;;;18.30;28.30;20.90;94839.00;;;;10349662;28;47167;-62
2022/03/24 09:32:18;;;;;;;2.53;1.65;;;18.30;28.40;20.90;94846.00;;;;10356420;28;46586;-63
2022/03/24 09:37:19;;;;;;;2.53;1.75;;;18.40;28.50;20.90;94839.00;;;;10367545;28;46379;-62
2022/03/24 09:42:21;;;;;;;2.42;1.42;;;18.40;28.50;20.90;94829.00;;;;10400341;28;45447;-63
2022/03/24 09:47:22;;;;;;;2.88;1.70;;;18.30;28.50;20.90;94836.00;;;;10395060;28;45529;-62
2022/03/24 09:52:25;;;;;;;3.88;1.83;;;18.40;28.60;20.90;94838.00;;;;10395499;28;45243;-63
2022/03/24 09:57:27;;;;;;;3.78;2.20;;;18.40;28.60;20.90;94845.00;;;;10395219;28;45575;-62
2022/03/24 10:02:29;;;;;;;3.40;2.00;;;18.40;28.60;20.90;94842.00;;;;10378169;28;48058;-63
2022/03/24 10:07:48;;;;;;;3.38;1.60;;;18.30;28.60;20.90;94844.00;;;;10374665;28;46901;-62
2022/03/24 10:12:49;;;;;;;2.50;1.90;;;18.30;28.60;20.90;94827.00;;;;10341289;28;47517;-62
2022/03/24 10:17:53;;;;;;;2.97;1.77;;;18.30;28.60;20.90;94839.00;;;;10348411;28;48028;-63
2022/03/24 10:22:57;;;;;;;3.50;2.20;;;18.40;28.60;20.90;94828.00;;;;10369344;28;45375;-63
2022/03/24 10:28:14;;;;;;;3.47;1.83;;;18.40;28.60;20.90;94827.00;;;;10368527;28;45321;-63
2022/03/24 10:33:45;;;;;;;4.32;1.77;;;18.40;28.60;20.90;94816.00;;;;10350961;28;46157;-62
2022/03/24 10:38:48;;;;;;;4.15;1.80;;;18.30;28.60;20.90;94829.00;;;;10367330;28;46235;-63
2022/03/24 10:43:53;;;;;;;5.25;1.70;;;18.40;28.60;21.00;94823.00;;;;10377362;28;46463;-62
2022/03/24 10:48:55;;;;;;;5.80;1.83;;;18.40;28.60;21.00;94830.00;;;;10371371;28;45314;-62
2022/03/24 10:54:18;;;;;;;3.33;1.80;;;18.40;28.60;21.00;94826.00;;;;10369144;28;45242;-63
2022/03/24 10:59:20;;;;;;;4.05;2.10;;;18.40;28.60;21.00;94819.00;;;;10353469;28;46405;-63
2022/03/24 11:04:20;;;;;;;4.53;1.58;;;18.40;28.60;21.00;94825.00;;;;10352680;28;48202;-63
2022/03/24 11:09:26;;;;;;;4.05;2.15;;;18.40;28.60;21.00;94809.00;;;;10351757;28;47193;-63
2022/03/24 11:14:27;;;;;;;3.13;1.77;;;18.40;28.60;21.00;94813.00;;;;10372007;28;45824;-63
2022/03/24 11:19:28;;;;;;;3.38;2.03;;;18.50;28.60;21.00;94815.00;;;;10375618;28;47173;-62
2022/03/24 11:24:29;;;;;;;3.47;2.05;;;18.40;28.60;21.00;94804.00;;;;10393137;28;46680;-62
2022/03/24 11:29:30;;;;;;;3.53;1.92;;;18.50;28.50;21.00;94802.00;;;;10392122;28;45769;-62
2022/03/24 11:34:31;;;;;;;2.72;1.75;;;18.40;28.60;21.00;94792.00;;;;10376292;28;47355;-63
2022/03/24 11:39:32;;;;;;;3.67;2.15;;;18.40;28.50;21.00;94801.00;;;;10375353;28;47102;-63
2022/03/24 11:44:43;;;;;;;2.25;1.70;;;18.50;28.60;21.10;94783.00;;;;10393930;28;45314;-63
2022/03/24 11:49:44;;;;;;;5.55;1.95;;;18.50;28.60;21.10;94789.00;;;;10399302;28;46220;-62
2022/03/24 11:54:53;;;;;;;4.32;1.98;;;18.50;28.60;21.10;94776.00;;;;10399726;28;45248;-63
2022/03/24 12:00:12;;;;;;;2.92;1.70;;;18.50;28.60;21.10;94787.00;;;;10399015;28;45350;-62
2022/03/24 12:05:13;;;;;;;4.55;2.00;;;18.50;28.60;21.10;94775.00;;;;10398534;28;47166;-62
2022/03/24 12:10:29;;;;;;;6.03;1.98;;;18.50;28.60;21.10;94776.00;;;;10399101;28;45668;-63
2022/03/24 12:15:31;;;;;;;4.57;2.30;;;18.50;28.70;21.10;94765.00;;;;10399357;28;46713;-63
2022/03/24 12:20:43;;;;;;;4.82;2.10;;;18.50;28.60;21.10;94757.00;;;;10381545;28;48491;-62
2022/03/24 12:25:44;;;;;;;5.28;2.17;;;18.60;28.70;21.10;94754.00;;;;10398234;28;45511;-62
2022/03/24 12:30:54;;;;;;;4.70;2.10;;;18.50;28.70;21.10;94746.00;;;;10381188;28;47263;-63
2022/03/24 12:35:56;;;;;;;3.95;2.00;;;18.60;28.80;21.10;94747.00;;;;10356980;28;46443;-62
2022/03/24 12:41:06;;;;;;;4.65;2.50;;;18.60;28.70;21.10;94734.00;;;;10356816;28;46994;-62
2022/03/24 12:46:44;;;;;;;7.47;1.95;;;18.60;28.60;21.10;94740.00;;;;10359144;28;45566;-63
2022/03/24 12:52:05;;;;;;;4.55;2.50;;;18.60;28.70;21.10;94745.00;;;;10396614;28;45164;-61
2022/03/24 12:57:28;;;;;;;4.13;2.10;;;18.60;28.70;21.20;94726.00;;;;10396634;28;47148;-62
2022/03/24 13:02:29;;;;;;;3.17;2.10;;;18.60;28.80;21.20;94716.00;;;;10380515;28;47229;-64
2022/03/24 13:07:30;;;;;;;3.20;1.88;;;18.60;28.70;21.20;94727.00;;;;10396861;28;45197;-67
2022/03/24 13:12:31;;;;;;;2.92;1.70;;;18.60;28.80;21.20;94714.00;;;;10397549;28;45272;-67
2022/03/24 13:17:32;;;;;;;4.78;2.03;;;18.70;28.80;21.20;94705.00;;;;10397056;28;45426;-67
2022/03/24 13:22:34;;;;;;;5.18;1.80;;;18.70;28.70;21.30;94703.00;;;;10397265;28;45473;-67
2022/03/24 13:27:38;;;;;;;3.45;1.90;;;18.80;28.70;21.20;94702.00;;;;10395453;28;47165;-66
2022/03/24 13:32:41;;;;;;;4.50;2.20;;;18.70;28.70;21.20;94692.00;;;;10396334;28;46542;-65
2022/03/24 13:37:53;;;;;;;3.83;2.05;;;18.70;28.30;21.20;94697.00;;;;10379900;28;46946;-66
2022/03/24 13:42:55;;;;;;;3.03;1.80;;;18.70;28.60;21.30;94675.00;;;;10380072;28;46908;-66
2022/03/24 13:48:00;;;;;;;3.03;1.90;;;18.70;28.60;21.30;94673.00;;;;10395690;28;46646;-67
2022/03/24 13:53:17;;;;;;;3.60;2.20;;;18.70;28.50;21.30;94676.00;;;;10396015;28;46323;-66
2022/03/24 13:58:18;;;;;;;2.55;1.80;;;18.70;28.10;21.10;94660.00;;;;10395400;28;46170;-65
2022/03/24 14:03:24;;;;;;;3.88;1.98;;;18.70;28.40;21.20;94665.00;;;;10395715;28;47035;-66
2022/03/24 14:08:25;;;;;;;3.28;1.70;;;18.70;28.30;21.20;94661.00;;;;10394081;28;45600;-66
2022/03/24 14:13:32;;;;;;;4.78;2.00;;;18.70;28.30;21.20;94659.00;;;;10395602;28;46966;-66
2022/03/24 14:18:33;;;;;;;2.80;1.80;;;18.70;28.30;21.30;94655.00;;;;10394903;28;45498;-66
2022/03/24 14:23:35;;;;;;;4.40;2.60;;;18.70;28.20;21.20;94644.00;;;;10395544;28;45168;-66
2022/03/24 14:28:41;;;;;;;4.85;3.30;;;18.70;27.30;21.20;94659.00;;;;10378728;28;47583;-66
2022/03/24 14:33:56;;;;;;;7.28;3.72;;;18.60;26.40;21.10;94631.00;;;;10378331;28;46697;-66
2022/03/24 14:39:16;;;;;;;5.97;3.92;;;18.60;25.80;21.10;94639.00;;;;10393668;28;48196;-66
2022/03/24 14:44:20;;;;;;;6.38;3.95;;;18.60;25.90;21.10;94650.00;;;;10378063;28;46955;-66
2022/03/24 14:49:21;;;;;;;4.95;3.20;;;18.60;25.60;21.10;94622.00;;;;10377114;28;46973;-66
2022/03/24 14:54:22;;;;;;;3.97;2.67;;;18.60;26.30;21.10;94621.00;;;;10377588;28;46822;-66
2022/03/24 14:59:22;;;;;;;3.42;2.65;;;18.60;27.00;21.20;94618.00;;;;10377254;28;46974;-66
2022/03/24 15:04:23;;;;;;;2.72;2.10;;;18.70;26.90;21.10;94624.00;;;;10395331;28;45668;-66
2022/03/24 15:09:24;;;;;;;3.60;2.10;;;18.60;26.70;21.20;94624.00;;;;10393841;28;45403;-66
2022/03/24 15:19:44;;;;;;;3.28;1.80;;;18.70;27.20;21.20;94599.00;;;;10397171;28;45219;-66
2022/03/24 15:24:44;;;;;;;4.07;1.90;;;18.70;27.00;21.20;94598.00;;;;10384314;28;47552;-66
2022/03/24 15:29:45;;;;;;;3.15;1.70;;;18.70;26.90;21.20;94614.00;;;;10383395;28;47321;-66
2022/03/24 15:34:46;;;;;;;2.13;1.55;;;18.70;27.20;21.30;94609.00;;;;10383680;28;46903;-65
2022/03/24 15:39:47;;;;;;;3.30;1.83;;;18.80;27.30;21.30;94611.00;;;;10400090;28;47081;-66
2022/03/24 15:44:48;;;;;;;4.22;2.10;;;18.80;27.20;21.20;94593.00;;;;10400465;28;45195;-66
2022/03/24 15:49:49;;;;;;;4.78;2.08;;;18.80;27.60;21.20;94607.00;;;;10383212;28;47159;-66
2022/03/24 15:54:50;;;;;;;4.43;2.03;;;18.70;27.30;21.20;94610.00;;;;10383493;28;47346;-66
2022/03/24 15:59:51;;;;;;;5.65;1.80;;;18.70;27.10;21.30;94612.00;;;;10400945;28;45483;-66
2022/03/24 16:04:51;;;;;;;3.17;1.50;;;18.80;27.30;21.30;94611.00;;;;10383144;28;47148;-66
2022/03/24 16:09:52;;;;;;;4.10;1.50;;;18.80;27.30;21.30;94612.00;;;;10399436;28;45573;-66
2022/03/24 16:14:53;;;;;;;4.13;1.70;;;18.80;27.50;21.20;94603.00;;;;10383032;28;47054;-66
2022/03/24 16:19:53;;;;;;;5.93;2.38;;;18.80;27.50;21.20;94610.00;;;;10399808;28;45263;-66
2022/03/24 16:24:54;;;;;;;4.18;1.58;;;18.70;27.50;21.20;94614.00;;;;10380499;28;47169;-66
2022/03/24 16:29:55;;;;;;;4.95;1.70;;;18.70;27.50;21.20;94620.00;;;;10397414;28;46520;-66
2022/03/24 16:34:55;;;;;;;4.25;1.55;;;18.70;27.50;21.20;94624.00;;;;10397504;28;47246;-66
2022/03/24 16:39:56;;;;;;;3.15;1.70;;;18.70;27.60;21.20;94604.00;;;;10378789;28;47073;-66
2022/03/24 16:44:57;;;;;;;4.88;1.70;;;18.70;27.60;21.10;94609.00;;;;10399110;28;45546;-65
2022/03/24 16:49:57;;;;;;;2.67;1.38;;;18.60;27.70;21.20;94619.00;;;;10380111;28;47267;-66
2022/03/24 16:54:59;;;;;;;2.85;1.35;;;18.60;27.80;21.20;94622.00;;;;10380637;28;47607;-66
2022/03/24 17:00:00;;;;;;;8.07;2.30;;;18.60;27.80;21.10;94617.00;;;;10378838;28;46970;-67
2022/03/24 17:05:01;;;;;;;2.80;1.65;;;18.60;27.20;21.10;94608.00;;;;10393391;28;45283;-66
2022/03/24 17:10:02;;;;;;;2.28;1.50;;;18.60;27.90;21.20;94613.00;;;;10380491;28;47157;-68
2022/03/24 17:15:04;;;;;;;2.53;1.20;;;18.60;27.80;21.20;94615.00;;;;10380042;28;47873;-67
2022/03/24 17:20:07;;;;;;;3.40;1.40;;;18.70;27.80;21.30;94624.00;;;;10396567;28;47279;-67
2022/03/24 17:25:12;;;;;;;4.53;1.23;;;18.70;27.80;21.30;94629.00;;;;10381118;28;46885;-67
2022/03/24 17:30:13;;;;;;;2.85;1.10;;;18.70;27.80;21.30;94630.00;;;;10395620;28;46169;-67
2022/03/24 17:35:21;;;;;;;4.10;1.00;;;18.80;27.80;21.30;94624.00;;;;10396346;28;45344;-68
2022/03/24 17:40:25;;;;;;;3.25;1.33;;;18.80;27.90;21.30;94628.00;;;;10338553;28;47128;-66
2022/03/24 17:45:28;;;;;;;2.17;1.15;;;18.80;27.90;21.30;94628.00;;;;10353612;28;47011;-64
2022/03/24 17:50:29;;;;;;;1.88;1.02;;;18.70;27.90;21.30;94614.00;;;;10367819;28;46679;-68
2022/03/24 17:55:30;;;;;;;2.38;1.33;;;18.80;27.90;21.30;94632.00;;;;10411349;28;46200;-67
2022/03/24 18:00:31;;;;;;;3.15;1.20;;;18.80;27.90;21.30;94631.00;;;;10396722;28;45256;-67
2022/03/24 18:05:32;;;;;;;2.38;1.10;;;18.70;27.90;21.20;94639.00;;;;10412237;28;45466;-67
2022/03/24 18:10:32;;;;;;;2.25;1.40;;;18.60;27.90;21.20;94647.00;;;;10395334;28;47180;-68
2022/03/24 18:15:33;;;;;;;1.92;1.35;;;18.60;27.90;21.20;94646.00;;;;10395451;28;47477;-67
2022/03/24 18:20:34;;;;;;;2.75;1.40;;;18.60;28.00;21.20;94629.00;;;;10411539;28;45350;-68
2022/03/24 18:25:35;;;;;;;2.95;1.60;;;18.60;28.00;21.20;94648.00;;;;10395769;28;46741;-67
2022/03/24 18:30:39;;;;;;;4.40;1.75;;;18.60;28.00;21.20;94645.00;;;;10391810;28;48243;-67
2022/03/24 18:35:44;;;;;;;2.63;1.77;;;18.60;28.00;21.20;94652.00;;;;10410179;28;47251;-68
2022/03/24 18:40:45;;;;;;;2.42;1.65;;;18.70;27.90;21.20;94636.00;;;;10393590;28;46892;-67
2022/03/24 18:45:46;;;;;;;2.75;1.70;;;18.70;27.90;21.20;94653.00;;;;10383605;28;47498;-68
2022/03/24 18:50:46;;;;;;;2.38;1.65;;;18.70;28.00;21.20;94640.00;;;;10393404;28;46909;-67
2022/03/24 18:55:48;;;;;;;2.33;1.80;;;18.80;27.90;21.20;94648.00;;;;10393860;28;45241;-66
2022/03/24 19:00:49;;;;;;;2.60;1.88;;;18.80;28.00;21.20;94656.00;;;;10394415;28;45397;-68
2022/03/24 19:05:50;;;;;;;2.40;1.80;;;18.80;28.00;21.30;94651.00;;;;10391948;28;47219;-67
2022/03/24 19:10:51;;;;;;;3.45;2.00;;;18.80;28.00;21.20;94662.00;;;;10394394;28;45402;-65
2022/03/24 19:15:51;;;;;;;2.83;1.70;;;18.80;28.00;21.30;94653.00;;;;10392222;28;47226;-66
2022/03/24 19:20:58;;;;;;;2.25;1.60;;;18.80;28.00;21.30;94645.00;;;;10408961;28;47347;-66
2022/03/24 19:25:59;;;;;;;2.42;1.70;;;18.80;28.20;21.40;94642.00;;;;10409425;28;45616;-66
2022/03/24 19:31:00;;;;;;;2.60;1.58;;;18.90;28.30;21.40;94655.00;;;;10394460;28;45468;-66
2022/03/24 19:36:01;;;;;;;2.65;1.60;;;18.80;28.20;21.40;94658.00;;;;10409432;28;46728;-66
2022/03/24 19:41:03;;;;;;;1.88;1.42;;;18.90;28.30;21.40;94655.00;;;;10393147;28;47317;-65
2022/03/24 19:46:04;;;;;;;1.70;1.30;;;18.90;28.30;21.40;94656.00;;;;10409544;28;45218;-65
2022/03/24 19:51:04;;;;;;;2.65;1.27;;;18.90;28.30;21.40;94655.00;;;;10409809;28;45180;-65
2022/03/24 19:56:06;;;;;;;1.65;1.23;;;18.90;28.60;21.40;94647.00;;;;10409447;28;45461;-65
2022/03/24 20:01:06;;;;;;;1.70;1.23;;;18.90;28.30;21.40;94653.00;;;;10409543;28;45325;-65
2022/03/24 20:06:07;;;;;;;3.00;1.35;;;18.90;28.30;21.40;94668.00;;;;10395803;28;46397;-66
2022/03/24 20:11:08;;;;;;;2.42;1.50;;;18.90;28.30;21.40;94651.00;;;;10399722;28;47125;-66
2022/03/24 20:16:09;;;;;;;1.75;1.40;;;18.90;28.30;21.40;94662.00;;;;10400311;28;46474;-66
2022/03/24 20:21:11;;;;;;;1.77;1.50;;;18.90;28.30;21.40;94658.00;;;;10415995;28;45193;-66
2022/03/24 20:26:12;;;;;;;1.75;1.48;;;18.90;28.30;21.40;94654.00;;;;10415655;28;46158;-65
2022/03/24 20:31:12;;;;;;;2.03;1.35;;;18.90;28.30;21.40;94655.00;;;;10399808;28;45411;-65
2022/03/24 20:36:13;;;;;;;1.80;1.30;;;18.90;28.30;21.40;94661.00;;;;10414903;28;47024;-65
2022/03/24 20:41:14;;;;;;;1.95;1.30;;;18.90;28.30;21.50;94666.00;;;;10398667;28;47556;-66
2022/03/24 20:46:19;;;;;;;2.35;1.50;;;18.90;28.30;21.50;94669.00;;;;10397721;28;46978;-65
2022/03/24 20:51:19;;;;;;;2.05;1.50;;;19.00;28.30;21.50;94669.00;;;;10397997;28;47157;-66
2022/03/24 20:56:21;;;;;;;2.80;1.55;;;18.90;28.30;21.50;94658.00;;;;10414492;28;45610;-66
2022/03/24 21:01:22;;;;;;;2.35;1.50;;;18.90;28.30;21.50;94670.00;;;;10414371;28;45272;-65
2022/03/24 21:06:23;;;;;;;2.30;1.10;;;18.90;28.20;21.50;94664.00;;;;10413628;28;45538;-65
2022/03/24 21:11:24;;;;;;;3.33;1.30;;;18.90;28.20;21.50;94659.00;;;;10414478;28;45594;-65
2022/03/24 21:16:27;;;;;;;2.20;1.50;;;18.90;28.20;21.50;94671.00;;;;10396316;28;48027;-65
2022/03/24 21:21:28;;;;;;;2.55;1.10;;;18.90;28.20;21.40;94666.00;;;;10409331;28;45431;-65
2022/03/24 21:26:28;;;;;;;1.60;1.20;;;18.90;28.20;21.40;94663.00;;;;10396153;28;45614;-65
2022/03/24 21:31:29;;;;;;;1.65;1.25;;;18.90;28.30;21.40;94674.00;;;;10396972;28;47300;-65
2022/03/24 21:36:30;;;;;;;1.55;1.23;;;18.90;28.30;21.40;94678.00;;;;10413427;28;45202;-65
2022/03/24 21:41:31;;;;;;;1.73;1.40;;;18.80;28.20;21.40;94680.00;;;;10412779;28;45480;-64
2022/03/24 21:46:33;;;;;;;1.55;1.25;;;18.80;28.30;21.30;94689.00;;;;10395776;28;46848;-66
2022/03/24 21:51:34;;;;;;;3.15;1.80;;;18.80;28.80;21.30;94680.00;;;;10413015;28;45555;-65
2022/03/24 21:56:35;;;;;;;1.58;1.23;;;18.80;28.30;21.30;94688.00;;;;10395796;28;47025;-65
2022/03/24 22:01:35;;;;;;;1.90;1.40;;;18.70;28.30;21.30;94679.00;;;;10413060;28;45355;-65
2022/03/24 22:06:37;;;;;;;2.05;1.30;;;18.70;28.30;21.20;94692.00;;;;10412119;28;46098;-65
2022/03/24 22:11:39;;;;;;;1.98;1.27;;;18.70;28.40;21.20;94670.00;;;;10412296;28;45218;-65
2022/03/24 22:16:40;;;;;;;2.22;1.40;;;18.60;28.40;21.20;94688.00;;;;10395083;28;47242;-65